sensor_id;sensor_type;location;lat;lon;timestamp;temperature;humidity
16625;DHT22;8426;48.496;9.098;2023-04-01T00:02:20;7.30;99.90
16625;DHT22;8426;48.496;9.098;2023-04-01T00:07:23;7.30;99.90
16625;DHT22;8426;48.496;9.098;2023-04-01T00:12:31;7.10;99.90
16625;DHT22;8426;48.496;9.098;2023-04-01T00:17:36;7.10;99.90
16625;DHT22;8426;48.496;9.098;2023-04-01T00:22:40;7.20;99.90
16625;DHT22;8426;48.496;9.098;2023-04-01T00:27:43;7.20;99.90
16625;DHT22;8426;48.496;9.098;2023-04-01T00:32:51;7.30;99.90
16625;DHT22;8426;48.496;9.098;2023-04-01T00:37:54;7.30;99.90
16625;DHT22;8426;48.496;9.098;2023-04-01T00:42:59;7.30;99.90
16625;DHT22;8426;48.496;9.098;2023-04-01T00:48:07;7.30;99.90
16625;DHT22;8426;48.496;9.098;2023-04-01T00:53:12;7.30;99.90
16625;DHT22;8426;48.496;9.098;2023-04-01T00:58:17;7.30;99.90
16625;DHT22;8426;48.496;9.098;2023-04-01T01:03:23;7.20;99.90
16625;DHT22;8426;48.496;9.098;2023-04-01T01:08:32;7.00;99.90
16625;DHT22;8426;48.496;9.098;2023-04-01T01:13:45;7.10;99.90
16625;DHT22;8426;48.496;9.098;2023-04-01T01:18:54;7.00;99.90
16625;DHT22;8426;48.496;9.098;2023-04-01T01:24:37;6.90;99.90
16625;DHT22;8426;48.496;9.098;2023-04-01T01:30:06;6.90;99.90
16625;DHT22;8426;48.496;9.098;2023-04-01T01:35:21;7.00;99.90
16625;DHT22;8426;48.496;9.098;2023-04-01T01:40:26;7.10;99.90
16625;DHT22;8426;48.496;9.098;2023-04-01T01:45:33;7.10;99.90
16625;DHT22;8426;48.496;9.098;2023-04-01T01:50:39;7.00;99.90
16625;DHT22;8426;48.496;9.098;2023-04-01T01:55:45;7.10;99.90
16625;DHT22;8426;48.496;9.098;2023-04-01T02:00:52;7.00;99.90
16625;DHT22;8426;48.496;9.098;2023-04-01T02:06:00;7.00;99.90
16625;DHT22;8426;48.496;9.098;2023-04-01T02:11:07;7.00;99.90
16625;DHT22;8426;48.496;9.098;2023-04-01T02:16:13;7.00;99.90
16625;DHT22;8426;48.496;9.098;2023-04-01T02:21:20;7.00;99.90
16625;DHT22;8426;48.496;9.098;2023-04-01T02:26:25;7.00;99.90
16625;DHT22;8426;48.496;9.098;2023-04-01T02:31:29;6.80;99.90
16625;DHT22;8426;48.496;9.098;2023-04-01T02:36:36;6.80;99.90
16625;DHT22;8426;48.496;9.098;2023-04-01T02:41:40;6.80;99.90
16625;DHT22;8426;48.496;9.098;2023-04-01T02:46:44;6.80;99.90
16625;DHT22;8426;48.496;9.098;2023-04-01T02:51:49;6.80;99.90
16625;DHT22;8426;48.496;9.098;2023-04-01T02:56:53;6.60;99.90
16625;DHT22;8426;48.496;9.098;2023-04-01T03:01:57;6.50;99.90
16625;DHT22;8426;48.496;9.098;2023-04-01T03:07:02;6.50;99.90
16625;DHT22;8426;48.496;9.098;2023-04-01T03:12:05;6.30;99.90
16625;DHT22;8426;48.496;9.098;2023-04-01T03:17:09;6.20;99.90
16625;DHT22;8426;48.496;9.098;2023-04-01T03:22:13;6.10;99.90
16625;DHT22;8426;48.496;9.098;2023-04-01T03:27:17;6.00;99.90
16625;DHT22;8426;48.496;9.098;2023-04-01T03:32:20;6.00;99.90
16625;DHT22;8426;48.496;9.098;2023-04-01T03:37:25;6.10;99.90
16625;DHT22;8426;48.496;9.098;2023-04-01T03:42:29;5.90;99.90
16625;DHT22;8426;48.496;9.098;2023-04-01T03:47:34;5.80;99.90
16625;DHT22;8426;48.496;9.098;2023-04-01T03:52:39;5.70;99.90
16625;DHT22;8426;48.496;9.098;2023-04-01T03:57:42;5.70;99.90
16625;DHT22;8426;48.496;9.098;2023-04-01T04:02:46;5.60;99.90
16625;DHT22;8426;48.496;9.098;2023-04-01T04:07:52;5.70;99.90
16625;DHT22;8426;48.496;9.098;2023-04-01T04:12:55;5.80;99.90
16625;DHT22;8426;48.496;9.098;2023-04-01T04:17:59;5.70;99.90
16625;DHT22;8426;48.496;9.098;2023-04-01T04:23:03;5.70;99.90
16625;DHT22;8426;48.496;9.098;2023-04-01T04:28:07;5.60;99.90
16625;DHT22;8426;48.496;9.098;2023-04-01T04:33:10;5.60;99.90
16625;DHT22;8426;48.496;9.098;2023-04-01T04:38:15;5.60;99.90
16625;DHT22;8426;48.496;9.098;2023-04-01T04:43:19;5.60;99.90
16625;DHT22;8426;48.496;9.098;2023-04-01T04:48:22;5.70;99.90
16625;DHT22;8426;48.496;9.098;2023-04-01T04:53:27;5.60;99.90
16625;DHT22;8426;48.496;9.098;2023-04-01T04:58:31;5.60;99.90
16625;DHT22;8426;48.496;9.098;2023-04-01T05:03:34;5.70;99.90
16625;DHT22;8426;48.496;9.098;2023-04-01T05:08:39;5.90;99.90
16625;DHT22;8426;48.496;9.098;2023-04-01T05:13:43;6.00;99.90
16625;DHT22;8426;48.496;9.098;2023-04-01T05:18:47;6.20;99.90
16625;DHT22;8426;48.496;9.098;2023-04-01T05:23:52;6.30;99.90
16625;DHT22;8426;48.496;9.098;2023-04-01T05:28:55;6.40;99.90
16625;DHT22;8426;48.496;9.098;2023-04-01T05:33:58;6.50;99.90
16625;DHT22;8426;48.496;9.098;2023-04-01T05:39:03;6.50;99.90
16625;DHT22;8426;48.496;9.098;2023-04-01T05:44:06;6.80;99.90
16625;DHT22;8426;48.496;9.098;2023-04-01T05:49:11;6.90;99.90
16625;DHT22;8426;48.496;9.098;2023-04-01T05:54:16;7.00;99.90
16625;DHT22;8426;48.496;9.098;2023-04-01T05:59:19;7.10;99.90
16625;DHT22;8426;48.496;9.098;2023-04-01T06:04:22;7.20;99.90
16625;DHT22;8426;48.496;9.098;2023-04-01T06:09:29;7.30;99.90
16625;DHT22;8426;48.496;9.098;2023-04-01T06:14:38;7.50;99.90
16625;DHT22;8426;48.496;9.098;2023-04-01T06:19:53;7.70;99.90
16625;DHT22;8426;48.496;9.098;2023-04-01T06:25:23;7.70;99.90
16625;DHT22;8426;48.496;9.098;2023-04-01T06:30:34;7.80;99.90
16625;DHT22;8426;48.496;9.098;2023-04-01T06:35:55;7.90;99.90
16625;DHT22;8426;48.496;9.098;2023-04-01T06:41:36;8.00;99.90
16625;DHT22;8426;48.496;9.098;2023-04-01T06:46:45;8.00;99.90
16625;DHT22;8426;48.496;9.098;2023-04-01T06:51:54;8.00;99.90
16625;DHT22;8426;48.496;9.098;2023-04-01T06:57:05;8.20;99.90
16625;DHT22;8426;48.496;9.098;2023-04-01T07:02:22;8.20;99.90
16625;DHT22;8426;48.496;9.098;2023-04-01T07:07:33;8.30;99.90
16625;DHT22;8426;48.496;9.098;2023-04-01T07:12:47;8.40;99.90
16625;DHT22;8426;48.496;9.098;2023-04-01T07:17:55;8.40;99.90
16625;DHT22;8426;48.496;9.098;2023-04-01T07:23:01;8.50;99.90
16625;DHT22;8426;48.496;9.098;2023-04-01T07:28:12;8.60;99.90
16625;DHT22;8426;48.496;9.098;2023-04-01T07:33:19;8.60;99.90
16625;DHT22;8426;48.496;9.098;2023-04-01T07:38:32;8.60;99.90
16625;DHT22;8426;48.496;9.098;2023-04-01T07:43:56;8.80;99.90
16625;DHT22;8426;48.496;9.098;2023-04-01T07:49:07;8.70;99.90
16625;DHT22;8426;48.496;9.098;2023-04-01T07:54:18;8.80;99.90
16625;DHT22;8426;48.496;9.098;2023-04-01T07:59:29;8.80;99.90
16625;DHT22;8426;48.496;9.098;2023-04-01T08:04:50;9.00;99.90
16625;DHT22;8426;48.496;9.098;2023-04-01T08:10:02;9.00;99.90
16625;DHT22;8426;48.496;9.098;2023-04-01T08:15:16;8.90;99.90
16625;DHT22;8426;48.496;9.098;2023-04-01T08:20:29;8.90;99.90
16625;DHT22;8426;48.496;9.098;2023-04-01T08:25:38;8.80;99.90
16625;DHT22;8426;48.496;9.098;2023-04-01T08:30:50;8.80;99.90
16625;DHT22;8426;48.496;9.098;2023-04-01T08:36:02;9.00;99.90
16625;DHT22;8426;48.496;9.098;2023-04-01T08:41:34;9.10;99.90
16625;DHT22;8426;48.496;9.098;2023-04-01T08:47:03;9.00;99.90
16625;DHT22;8426;48.496;9.098;2023-04-01T08:52:29;8.70;99.90
16625;DHT22;8426;48.496;9.098;2023-04-01T08:57:45;8.60;99.90
16625;DHT22;8426;48.496;9.098;2023-04-01T09:08:38;8.80;99.90
16625;DHT22;8426;48.496;9.098;2023-04-01T09:13:57;8.90;99.90
16625;DHT22;8426;48.496;9.098;2023-04-01T09:19:21;8.80;99.90
16625;DHT22;8426;48.496;9.098;2023-04-01T09:30:31;9.60;99.90
16625;DHT22;8426;48.496;9.098;2023-04-01T09:35:46;9.70;99.90
16625;DHT22;8426;48.496;9.098;2023-04-01T09:40:55;9.80;99.90
16625;DHT22;8426;48.496;9.098;2023-04-01T09:46:19;9.60;99.90
16625;DHT22;8426;48.496;9.098;2023-04-01T09:51:35;9.50;99.90
16625;DHT22;8426;48.496;9.098;2023-04-01T09:57:16;9.50;99.90
16625;DHT22;8426;48.496;9.098;2023-04-01T10:02:50;9.90;99.90
16625;DHT22;8426;48.496;9.098;2023-04-01T10:19:49;9.50;99.90
16625;DHT22;8426;48.496;9.098;2023-04-01T10:25:26;9.20;99.90
16625;DHT22;8426;48.496;9.098;2023-04-01T10:36:43;9.00;99.90
16625;DHT22;8426;48.496;9.098;2023-04-01T10:47:46;9.50;99.90
16625;DHT22;8426;48.496;9.098;2023-04-01T10:59:12;10.00;99.90
16625;DHT22;8426;48.496;9.098;2023-04-01T11:04:57;10.20;99.90
16625;DHT22;8426;48.496;9.098;2023-04-01T11:11:01;10.20;99.90
16625;DHT22;8426;48.496;9.098;2023-04-01T11:16:37;10.10;99.90
16625;DHT22;8426;48.496;9.098;2023-04-01T11:22:07;10.30;99.90
16625;DHT22;8426;48.496;9.098;2023-04-01T11:27:30;10.40;99.90
16625;DHT22;8426;48.496;9.098;2023-04-01T11:32:51;10.20;99.90
16625;DHT22;8426;48.496;9.098;2023-04-01T11:38:04;9.90;99.90
16625;DHT22;8426;48.496;9.098;2023-04-01T11:43:19;10.00;99.90
16625;DHT22;8426;48.496;9.098;2023-04-01T11:48:44;10.20;99.90
16625;DHT22;8426;48.496;9.098;2023-04-01T11:53:57;10.40;99.90
16625;DHT22;8426;48.496;9.098;2023-04-01T11:59:41;10.40;99.90
16625;DHT22;8426;48.496;9.098;2023-04-01T12:05:08;10.80;99.90
16625;DHT22;8426;48.496;9.098;2023-04-01T12:10:18;10.80;99.90
16625;DHT22;8426;48.496;9.098;2023-04-01T12:15:32;10.60;99.90
16625;DHT22;8426;48.496;9.098;2023-04-01T12:20:46;10.50;99.90
16625;DHT22;8426;48.496;9.098;2023-04-01T12:26:05;10.50;99.90
16625;DHT22;8426;48.496;9.098;2023-04-01T12:31:23;10.30;99.90
16625;DHT22;8426;48.496;9.098;2023-04-01T12:36:49;10.30;99.90
16625;DHT22;8426;48.496;9.098;2023-04-01T12:42:03;10.20;99.90
16625;DHT22;8426;48.496;9.098;2023-04-01T12:52:55;10.30;99.90
16625;DHT22;8426;48.496;9.098;2023-04-01T12:58:41;10.70;99.90
16625;DHT22;8426;48.496;9.098;2023-04-01T13:04:05;11.10;99.90
16625;DHT22;8426;48.496;9.098;2023-04-01T13:09:28;11.10;99.90
16625;DHT22;8426;48.496;9.098;2023-04-01T13:14:50;11.10;99.90
16625;DHT22;8426;48.496;9.098;2023-04-01T13:20:04;10.80;99.90
16625;DHT22;8426;48.496;9.098;2023-04-01T13:25:19;11.30;99.90
16625;DHT22;8426;48.496;9.098;2023-04-01T13:30:27;11.60;99.90
16625;DHT22;8426;48.496;9.098;2023-04-01T13:35:41;11.70;99.90
16625;DHT22;8426;48.496;9.098;2023-04-01T13:40:52;11.70;99.90
16625;DHT22;8426;48.496;9.098;2023-04-01T13:46:26;11.40;99.90
16625;DHT22;8426;48.496;9.098;2023-04-01T13:52:08;11.30;99.90
16625;DHT22;8426;48.496;9.098;2023-04-01T13:57:26;11.10;99.90
16625;DHT22;8426;48.496;9.098;2023-04-01T14:03:00;11.30;99.90
16625;DHT22;8426;48.496;9.098;2023-04-01T14:08:17;11.20;99.90
16625;DHT22;8426;48.496;9.098;2023-04-01T14:13:29;11.20;99.90
16625;DHT22;8426;48.496;9.098;2023-04-01T14:18:49;11.20;99.90
16625;DHT22;8426;48.496;9.098;2023-04-01T14:24:20;11.00;99.90
16625;DHT22;8426;48.496;9.098;2023-04-01T14:29:32;10.80;99.90
16625;DHT22;8426;48.496;9.098;2023-04-01T14:35:13;11.00;99.90
16625;DHT22;8426;48.496;9.098;2023-04-01T14:40:28;10.90;99.90
16625;DHT22;8426;48.496;9.098;2023-04-01T14:45:54;10.60;99.90
16625;DHT22;8426;48.496;9.098;2023-04-01T14:51:09;10.70;99.90
16625;DHT22;8426;48.496;9.098;2023-04-01T14:56:35;10.80;99.90
16625;DHT22;8426;48.496;9.098;2023-04-01T15:01:46;10.50;99.90
16625;DHT22;8426;48.496;9.098;2023-04-01T15:07:05;10.60;99.90
16625;DHT22;8426;48.496;9.098;2023-04-01T15:12:23;10.70;99.90
16625;DHT22;8426;48.496;9.098;2023-04-01T15:17:43;10.80;99.90
16625;DHT22;8426;48.496;9.098;2023-04-01T15:22:59;10.70;99.90
16625;DHT22;8426;48.496;9.098;2023-04-01T15:28:13;10.60;99.90
16625;DHT22;8426;48.496;9.098;2023-04-01T15:39:00;10.20;99.90
16625;DHT22;8426;48.496;9.098;2023-04-01T15:44:33;10.20;99.90
16625;DHT22;8426;48.496;9.098;2023-04-01T15:49:43;10.30;99.90
16625;DHT22;8426;48.496;9.098;2023-04-01T15:55:16;10.10;99.90
16625;DHT22;8426;48.496;9.098;2023-04-01T16:00:26;10.10;99.90
16625;DHT22;8426;48.496;9.098;2023-04-01T16:05:37;9.90;99.90
16625;DHT22;8426;48.496;9.098;2023-04-01T16:10:52;9.90;99.90
16625;DHT22;8426;48.496;9.098;2023-04-01T16:16:07;9.80;99.90
16625;DHT22;8426;48.496;9.098;2023-04-01T16:21:24;9.90;99.90
16625;DHT22;8426;48.496;9.098;2023-04-01T16:26:35;9.80;99.90
16625;DHT22;8426;48.496;9.098;2023-04-01T16:31:48;9.90;99.90
16625;DHT22;8426;48.496;9.098;2023-04-01T16:37:00;9.80;99.90
16625;DHT22;8426;48.496;9.098;2023-04-01T16:47:45;9.80;99.90
16625;DHT22;8426;48.496;9.098;2023-04-01T16:52:59;9.80;99.90
16625;DHT22;8426;48.496;9.098;2023-04-01T16:58:06;9.90;99.90
16625;DHT22;8426;48.496;9.098;2023-04-01T17:03:16;9.80;99.90
16625;DHT22;8426;48.496;9.098;2023-04-01T17:08:34;9.70;99.90
16625;DHT22;8426;48.496;9.098;2023-04-01T17:13:46;9.70;99.90
16625;DHT22;8426;48.496;9.098;2023-04-01T17:19:01;9.60;99.90
16625;DHT22;8426;48.496;9.098;2023-04-01T17:24:21;9.50;99.90
16625;DHT22;8426;48.496;9.098;2023-04-01T17:29:34;9.40;99.90
16625;DHT22;8426;48.496;9.098;2023-04-01T17:34:54;9.30;99.90
16625;DHT22;8426;48.496;9.098;2023-04-01T17:40:15;9.30;99.90
16625;DHT22;8426;48.496;9.098;2023-04-01T17:45:30;9.20;99.90
16625;DHT22;8426;48.496;9.098;2023-04-01T17:50:51;9.20;99.90
16625;DHT22;8426;48.496;9.098;2023-04-01T17:56:06;9.20;99.90
16625;DHT22;8426;48.496;9.098;2023-04-01T18:01:31;9.10;99.90
16625;DHT22;8426;48.496;9.098;2023-04-01T18:06:53;9.00;99.90
16625;DHT22;8426;48.496;9.098;2023-04-01T18:12:06;8.90;99.90
16625;DHT22;8426;48.496;9.098;2023-04-01T18:17:18;8.90;99.90
16625;DHT22;8426;48.496;9.098;2023-04-01T18:22:29;8.90;99.90
16625;DHT22;8426;48.496;9.098;2023-04-01T18:27:42;9.00;99.90
16625;DHT22;8426;48.496;9.098;2023-04-01T18:32:50;8.90;99.90
16625;DHT22;8426;48.496;9.098;2023-04-01T18:38:00;8.90;99.90
16625;DHT22;8426;48.496;9.098;2023-04-01T18:43:16;8.80;99.90
16625;DHT22;8426;48.496;9.098;2023-04-01T18:48:37;8.70;99.90
16625;DHT22;8426;48.496;9.098;2023-04-01T18:53:54;8.60;99.90
16625;DHT22;8426;48.496;9.098;2023-04-01T18:59:04;8.40;99.90
16625;DHT22;8426;48.496;9.098;2023-04-01T19:04:18;8.20;99.90
16625;DHT22;8426;48.496;9.098;2023-04-01T19:09:27;8.00;99.90
16625;DHT22;8426;48.496;9.098;2023-04-01T19:14:45;7.80;99.90
16625;DHT22;8426;48.496;9.098;2023-04-01T19:19:54;7.60;99.90
16625;DHT22;8426;48.496;9.098;2023-04-01T19:25:31;7.40;99.90
16625;DHT22;8426;48.496;9.098;2023-04-01T19:30:44;7.10;99.90
16625;DHT22;8426;48.496;9.098;2023-04-01T19:35:54;6.80;99.90
16625;DHT22;8426;48.496;9.098;2023-04-01T19:41:12;6.60;99.90
16625;DHT22;8426;48.496;9.098;2023-04-01T19:46:26;6.30;99.90
16625;DHT22;8426;48.496;9.098;2023-04-01T19:51:35;6.00;99.90
16625;DHT22;8426;48.496;9.098;2023-04-01T19:56:46;5.90;99.90
16625;DHT22;8426;48.496;9.098;2023-04-01T20:01:56;5.90;99.90
16625;DHT22;8426;48.496;9.098;2023-04-01T20:07:07;6.00;99.90
16625;DHT22;8426;48.496;9.098;2023-04-01T20:12:21;6.20;99.90
16625;DHT22;8426;48.496;9.098;2023-04-01T20:17:31;6.00;99.90
16625;DHT22;8426;48.496;9.098;2023-04-01T20:28:47;6.00;99.90
16625;DHT22;8426;48.496;9.098;2023-04-01T20:34:20;6.20;99.90
16625;DHT22;8426;48.496;9.098;2023-04-01T20:39:52;6.30;99.90
16625;DHT22;8426;48.496;9.098;2023-04-01T20:45:14;6.20;99.90
16625;DHT22;8426;48.496;9.098;2023-04-01T20:50:23;6.10;99.90
16625;DHT22;8426;48.496;9.098;2023-04-01T20:56:02;6.00;99.90
16625;DHT22;8426;48.496;9.098;2023-04-01T21:01:20;5.90;99.90
16625;DHT22;8426;48.496;9.098;2023-04-01T21:06:44;5.70;99.90
16625;DHT22;8426;48.496;9.098;2023-04-01T21:11:55;5.80;99.90
16625;DHT22;8426;48.496;9.098;2023-04-01T21:17:08;6.00;99.90
16625;DHT22;8426;48.496;9.098;2023-04-01T21:22:36;6.30;99.90
16625;DHT22;8426;48.496;9.098;2023-04-01T21:27:55;6.50;99.90
16625;DHT22;8426;48.496;9.098;2023-04-01T21:33:19;6.60;99.90
16625;DHT22;8426;48.496;9.098;2023-04-01T21:38:40;6.60;99.90
16625;DHT22;8426;48.496;9.098;2023-04-01T21:49:43;6.80;99.90
16625;DHT22;8426;48.496;9.098;2023-04-01T21:55:21;6.80;99.90
16625;DHT22;8426;48.496;9.098;2023-04-01T22:00:32;6.70;99.90
16625;DHT22;8426;48.496;9.098;2023-04-01T22:05:39;6.70;99.90
16625;DHT22;8426;48.496;9.098;2023-04-01T22:10:50;6.80;99.90
16625;DHT22;8426;48.496;9.098;2023-04-01T22:16:08;6.80;99.90
16625;DHT22;8426;48.496;9.098;2023-04-01T22:21:21;6.80;99.90
16625;DHT22;8426;48.496;9.098;2023-04-01T22:26:33;6.70;99.90
16625;DHT22;8426;48.496;9.098;2023-04-01T22:31:46;6.70;99.90
16625;DHT22;8426;48.496;9.098;2023-04-01T22:36:58;6.60;99.90
16625;DHT22;8426;48.496;9.098;2023-04-01T22:42:14;6.50;99.90
16625;DHT22;8426;48.496;9.098;2023-04-01T22:47:26;6.50;99.90
16625;DHT22;8426;48.496;9.098;2023-04-01T22:52:40;6.40;99.90
16625;DHT22;8426;48.496;9.098;2023-04-01T22:57:47;6.20;99.90
16625;DHT22;8426;48.496;9.098;2023-04-01T23:03:08;6.20;99.90
16625;DHT22;8426;48.496;9.098;2023-04-01T23:13:52;5.90;99.90
16625;DHT22;8426;48.496;9.098;2023-04-01T23:18:58;5.90;99.90
16625;DHT22;8426;48.496;9.098;2023-04-01T23:24:14;5.90;99.90
16625;DHT22;8426;48.496;9.098;2023-04-01T23:29:21;5.90;99.90
16625;DHT22;8426;48.496;9.098;2023-04-01T23:34:28;6.00;99.90
16625;DHT22;8426;48.496;9.098;2023-04-01T23:39:36;5.90;99.90
16625;DHT22;8426;48.496;9.098;2023-04-01T23:44:40;5.90;99.90
16625;DHT22;8426;48.496;9.098;2023-04-01T23:49:48;5.80;99.90
16625;DHT22;8426;48.496;9.098;2023-04-01T23:54:56;5.70;99.90
